Aeroporto :
LOGIN :

Iscrizione | Disclaimer

   EN    FR    IT 

 










Sommario :    VFR   VFR Marginale   IFR   IFR Intensivo   IFR Molto Intensivo
Visibilità : 
Base nubi : 
>= 8 km
>= 3000ft
5 / 8 km
1000 / 3000 ft
1500m / 5 km
500 / 1000 ft
800 / 1500m
200 / 500 ft
< 800m
< 200 ft
Simboli :   Temporali  Nebbia  Neve Forte  Precipitazioni Forti  Vento > 20 kt
SIGMETs :   Varie  Temporali  Ghiacco  Turbolenza  Onda orograficha  Ceneri Vulcaniche







- Altitudine del aeroporto : 1416 ft
- Codice IATA : ZRH


LSZH - Zurich

ULTIMO METAR :
  • 201620Z 05010KT CAVOK 22/02 Q1023 NOSIG

METARs OBSOLETI :
  • 201550Z 04009KT CAVOK 22/03 Q1023 NOSIG
  • 201520Z 06009KT 020V090 CAVOK 22/02 Q1023 NOSIG
  • 201450Z 08007KT CAVOK 23/03 Q1023 NOSIG
  • 201420Z 04011KT CAVOK 22/02 Q1024 NOSIG
  • 201350Z 05010KT 010V080 CAVOK 22/02 Q1024 NOSIG

TAF TAF LSZH
Valido dal 20 a 15 ore il 21 a 21 ore UTC


201425Z 2015/2121 06010KT CAVOK TX23/2015Z TN05/2104Z TX23/2114Z
BECMG 2017/2019 07006KT
BECMG 2019/2021 VRB03KT
BECMG 2110/2113 05007KT
TEMPO 2113/2117 06010KT
ATIS : +41 43 816 2295 (DEP) +41 43 816 2294 (ARR)
Nessun NOTAM noto per questo aeroporto.



MetMap, La meteo Aeronautica in un colpo d'occhio ! - Copyright ORBIFLY Dicembre 2007 - Disclaimer

ORBIFLY MET'MAP TEAM :

Programmazione e sviluppo : Alexandra Zaïnal
Concezione e sviluppo : Baudouin d'Aumeries
Co-Programmazione e sviluppo : Marc-Olivier Méhu
Supporto tecnico e logistico : Manuel Goepfert
Aiuto per la traduzione : Arnaldo La Scala

Contatto : metmap@orbifly.com




FONTI E CREDITI :

   NOAA